Time;durP1;ratioP1;P1;durP2;ratioP2;P2;SDS_P1;SDS_P2;PMS_P1;PMS_P2;Temp;Humidity;BMP_temperature;BMP_pressure;BME280_temperature;BME280_humidity;BME280_pressure;Samples;Min_cycle;Max_cycle;Signal;HPM_P1;HPM_P2
2021/01/31 00:02:09;;;;;;;31.13;15.83;;;;;;;;;;5093419;28;20198;-87
2021/01/31 00:04:35;;;;;;;36.27;18.33;;;;;;;;;;5094001;28;20179;-88
2021/01/31 00:07:01;;;;;;;27.67;16.33;;;;;;;;;;5093565;28;20174;-88
2021/01/31 00:09:26;;;;;;;26.83;15.00;;;;;;;;;;5092987;28;20221;-88
2021/01/31 00:11:52;;;;;;;26.07;14.53;;;;;;;;;;5093306;28;20205;-88
2021/01/31 00:14:18;;;;;;;24.20;13.03;;;;;;;;;;5093698;28;20218;-88
2021/01/31 00:16:44;;;;;;;21.53;12.67;;;;;;;;;;5092233;28;20170;-88
2021/01/31 00:19:09;;;;;;;21.93;11.93;;;;;;;;;;5092510;28;20178;-89
2021/01/31 00:21:34;;;;;;;23.00;13.10;;;;;;;;;;5093989;28;20197;-88
2021/01/31 00:23:59;;;;;;;24.00;14.03;;;;;;;;;;5092584;28;20536;-88
2021/01/31 00:26:25;;;;;;;23.10;13.03;;;;;;;;;;5092233;28;20174;-88
2021/01/31 00:28:50;;;;;;;28.87;14.83;;;;;;;;;;5094152;28;20171;-89
2021/01/31 00:31:15;;;;;;;24.97;14.13;;;;;;;;;;5093883;28;20178;-89
2021/01/31 00:33:41;;;;;;;27.70;15.70;;;;;;;;;;5094062;28;20171;-89
2021/01/31 00:36:07;;;;;;;26.47;14.60;;;;;;;;;;5093764;28;20220;-89
2021/01/31 00:38:33;;;;;;;23.93;13.13;;;;;;;;;;5094034;28;20166;-89
2021/01/31 00:40:58;;;;;;;22.23;12.87;;;;;;;;;;5093601;28;20733;-88
2021/01/31 00:43:23;;;;;;;23.43;12.70;;;;;;;;;;5093858;28;20613;-88
2021/01/31 00:45:50;;;;;;;24.37;14.37;;;;;;;;;;5094115;28;20170;-89
2021/01/31 00:48:15;;;;;;;20.97;13.43;;;;;;;;;;5094004;28;20255;-89
2021/01/31 00:50:40;;;;;;;20.53;12.73;;;;;;;;;;5092681;28;20221;-89
2021/01/31 00:53:06;;;;;;;22.03;12.23;;;;;;;;;;5092604;28;20174;-89
2021/01/31 00:55:32;;;;;;;21.00;12.10;;;;;;;;;;5093431;28;20206;-88
2021/01/31 00:57:57;;;;;;;21.10;12.73;;;;;;;;;;5094013;28;20215;-89
2021/01/31 01:00:33;;;;;;;21.50;12.93;;;;;;;;;;5093902;28;20206;-89
2021/01/31 01:02:59;;;;;;;18.23;11.47;;;;;;;;;;5094114;28;20285;-88
2021/01/31 01:05:26;;;;;;;18.57;10.90;;;;;;;;;;5094064;28;20261;-89
2021/01/31 01:07:52;;;;;;;20.03;11.97;;;;;;;;;;5093829;28;20171;-89
2021/01/31 01:10:18;;;;;;;19.40;11.37;;;;;;;;;;5094056;28;20632;-89
2021/01/31 01:12:44;;;;;;;18.63;10.67;;;;;;;;;;5094067;28;20170;-89
2021/01/31 01:15:11;;;;;;;20.93;12.47;;;;;;;;;;5092369;28;20593;-89
2021/01/31 01:17:36;;;;;;;21.97;12.70;;;;;;;;;;5093454;28;20170;-89
2021/01/31 01:20:02;;;;;;;25.60;12.87;;;;;;;;;;5092686;28;20696;-89
2021/01/31 01:22:28;;;;;;;28.97;14.30;;;;;;;;;;5093223;28;20221;-89
2021/01/31 01:24:53;;;;;;;30.87;15.53;;;;;;;;;;5092600;28;20206;-89
2021/01/31 01:27:19;;;;;;;29.33;14.13;;;;;;;;;;5093061;28;20206;-89
2021/01/31 01:29:45;;;;;;;31.03;15.53;;;;;;;;;;5096220;28;20174;-89
2021/01/31 01:32:10;;;;;;;27.27;13.90;;;;;;;;;;5097153;28;20175;-89
2021/01/31 01:34:36;;;;;;;26.10;12.53;;;;;;;;;;5097021;28;20528;-89
2021/01/31 01:37:01;;;;;;;19.50;11.63;;;;;;;;;;5097376;28;20193;-89
2021/01/31 01:39:28;;;;;;;18.93;11.73;;;;;;;;;;5097286;28;20251;-89
2021/01/31 01:41:53;;;;;;;21.67;12.37;;;;;;;;;;5097069;28;20326;-89
2021/01/31 01:44:18;;;;;;;19.53;11.10;;;;;;;;;;5096932;28;20636;-89
2021/01/31 01:46:52;;;;;;;21.83;11.80;;;;;;;;;;5097163;28;20617;-89
2021/01/31 01:49:20;;;;;;;17.87;11.03;;;;;;;;;;5095959;28;20270;-90
2021/01/31 01:51:48;;;;;;;19.03;11.17;;;;;;;;;;5095976;28;20193;-89
2021/01/31 01:54:17;;;;;;;18.63;10.80;;;;;;;;;;5097480;28;20174;-89
2021/01/31 01:56:45;;;;;;;19.27;11.27;;;;;;;;;;5095951;28;20257;-89
2021/01/31 01:59:10;;;;;;;17.97;10.67;;;;;;;;;;5095592;28;20198;-89
2021/01/31 02:01:39;;;;;;;17.90;11.00;;;;;;;;;;5095523;28;20238;-89
2021/01/31 02:04:04;;;;;;;19.77;11.63;;;;;;;;;;5096661;28;20243;-89
2021/01/31 02:06:30;;;;;;;22.77;12.23;;;;;;;;;;5095489;28;20621;-89
2021/01/31 02:08:58;;;;;;;18.87;11.90;;;;;;;;;;5096923;28;20166;-89
2021/01/31 02:11:24;;;;;;;19.87;11.77;;;;;;;;;;5095396;28;20186;-90
2021/01/31 02:13:52;;;;;;;16.73;11.17;;;;;;;;;;5094890;28;20229;-89
2021/01/31 02:16:35;;;;;;;19.13;10.83;;;;;;;;;;5095229;28;20262;-89
2021/01/31 02:19:01;;;;;;;18.33;10.83;;;;;;;;;;5095833;28;20315;-89
2021/01/31 02:21:32;;;;;;;20.20;12.07;;;;;;;;;;5095978;28;20288;-88
2021/01/31 02:24:16;;;;;;;19.20;11.70;;;;;;;;;;5096491;28;20175;-89
2021/01/31 02:26:48;;;;;;;20.70;12.43;;;;;;;;;;5095138;28;20537;-89
2021/01/31 02:29:22;;;;;;;21.87;13.13;;;;;;;;;;5096588;28;20207;-90
2021/01/31 02:31:53;;;;;;;24.27;12.97;;;;;;;;;;5097049;28;20177;-89
2021/01/31 02:34:37;;;;;;;25.10;13.67;;;;;;;;;;5096235;28;20162;-89
2021/01/31 02:37:02;;;;;;;22.20;13.33;;;;;;;;;;5096450;28;20173;-89
2021/01/31 02:39:30;;;;;;;26.27;13.60;;;;;;;;;;5096455;28;20170;-89
2021/01/31 02:42:14;;;;;;;26.23;13.80;;;;;;;;;;5096237;28;20226;-89
2021/01/31 02:44:41;;;;;;;24.90;13.50;;;;;;;;;;5096029;28;20182;-89
2021/01/31 02:47:11;;;;;;;22.37;12.93;;;;;;;;;;5095939;28;20253;-89
2021/01/31 02:49:38;;;;;;;20.97;11.87;;;;;;;;;;5096189;28;20629;-89
2021/01/31 02:52:07;;;;;;;21.57;12.27;;;;;;;;;;5095221;28;20190;-89
2021/01/31 02:54:51;;;;;;;22.97;12.70;;;;;;;;;;5094627;28;20570;-88
2021/01/31 02:57:20;;;;;;;20.40;12.40;;;;;;;;;;5095717;28;20245;-88
2021/01/31 02:59:53;;;;;;;24.37;12.40;;;;;;;;;;5094303;28;20182;-88
2021/01/31 03:02:21;;;;;;;21.70;12.63;;;;;;;;;;5095636;28;20221;-88
2021/01/31 03:04:50;;;;;;;21.57;12.37;;;;;;;;;;5094061;28;20189;-88
2021/01/31 03:07:26;;;;;;;19.67;12.20;;;;;;;;;;5095928;28;20185;-88
2021/01/31 03:09:58;;;;;;;22.00;11.77;;;;;;;;;;5096168;28;20166;-88
2021/01/31 03:12:27;;;;;;;20.17;11.90;;;;;;;;;;5095437;28;20600;-88
2021/01/31 03:14:58;;;;;;;21.43;12.37;;;;;;;;;;5095348;28;20281;-88
2021/01/31 03:17:26;;;;;;;21.60;11.33;;;;;;;;;;5095344;28;20205;-88
2021/01/31 03:19:58;;;;;;;20.90;12.23;;;;;;;;;;5095812;28;20174;-88
2021/01/31 03:22:32;;;;;;;23.23;12.37;;;;;;;;;;5095586;28;20708;-88
2021/01/31 03:25:00;;;;;;;22.00;12.13;;;;;;;;;;5095323;28;20163;-89
2021/01/31 03:27:31;;;;;;;19.27;11.50;;;;;;;;;;5095497;28;20699;-89
2021/01/31 03:29:57;;;;;;;22.47;12.10;;;;;;;;;;5095455;28;20169;-88
2021/01/31 03:32:30;;;;;;;20.47;11.90;;;;;;;;;;5094328;28;20266;-89
2021/01/31 03:34:58;;;;;;;26.63;14.67;;;;;;;;;;5095015;28;20536;-89
2021/01/31 03:37:24;;;;;;;22.27;12.40;;;;;;;;;;5094954;28;20171;-89
2021/01/31 03:39:51;;;;;;;19.17;11.40;;;;;;;;;;5095057;28;20207;-88
2021/01/31 03:42:16;;;;;;;20.70;12.00;;;;;;;;;;5093704;28;20295;-88
2021/01/31 03:44:43;;;;;;;21.47;12.93;;;;;;;;;;5093619;28;20182;-88
2021/01/31 03:47:32;;;;;;;18.17;10.80;;;;;;;;;;5094494;28;20536;-87
2021/01/31 03:49:58;;;;;;;39.17;19.53;;;;;;;;;;5086716;28;20187;-89
2021/01/31 03:52:28;;;;;;;20.97;11.60;;;;;;;;;;5095004;28;20643;-88
2021/01/31 03:54:53;;;;;;;18.30;11.00;;;;;;;;;;5094727;28;20170;-89
2021/01/31 03:57:18;;;;;;;42.97;20.17;;;;;;;;;;5094654;28;20163;-88
2021/01/31 03:59:50;;;;;;;25.20;13.30;;;;;;;;;;5093353;28;20178;-89
2021/01/31 04:02:18;;;;;;;22.03;12.17;;;;;;;;;;5093260;28;20264;-88
2021/01/31 04:04:47;;;;;;;19.23;11.57;;;;;;;;;;5094273;28;20217;-88
2021/01/31 04:07:15;;;;;;;26.30;14.93;;;;;;;;;;5094706;28;20625;-88
2021/01/31 04:09:41;;;;;;;23.67;13.10;;;;;;;;;;5094465;28;20181;-88
2021/01/31 04:12:11;;;;;;;22.33;11.27;;;;;;;;;;5094927;28;20178;-88
2021/01/31 04:14:39;;;;;;;33.70;16.87;;;;;;;;;;5093068;28;20290;-88
2021/01/31 04:17:04;;;;;;;40.70;19.87;;;;;;;;;;5094127;28;20257;-88
2021/01/31 04:19:30;;;;;;;39.47;18.97;;;;;;;;;;5093133;28;20198;-88
2021/01/31 04:21:55;;;;;;;101.13;37.73;;;;;;;;;;5093989;28;20202;-89
2021/01/31 04:24:20;;;;;;;86.23;33.13;;;;;;;;;;5094269;28;20216;-88
2021/01/31 04:26:46;;;;;;;46.27;21.23;;;;;;;;;;5094461;28;20192;-88
2021/01/31 04:29:11;;;;;;;50.50;24.83;;;;;;;;;;5092884;28;20235;-88
2021/01/31 04:31:36;;;;;;;36.90;19.03;;;;;;;;;;5093384;28;20268;-88
2021/01/31 04:34:02;;;;;;;34.57;18.93;;;;;;;;;;5093900;28;20178;-88
2021/01/31 04:36:27;;;;;;;29.83;15.20;;;;;;;;;;5094436;28;20253;-88
2021/01/31 04:38:53;;;;;;;24.00;13.10;;;;;;;;;;5094143;28;20171;-88
2021/01/31 04:41:18;;;;;;;23.07;13.00;;;;;;;;;;5093390;28;20229;-88
2021/01/31 04:43:44;;;;;;;21.10;12.20;;;;;;;;;;5094035;28;20174;-87
2021/01/31 04:46:14;;;;;;;22.77;12.13;;;;;;;;;;5094006;28;20174;-87
2021/01/31 04:48:40;;;;;;;21.80;13.10;;;;;;;;;;5092821;28;20174;-87
2021/01/31 04:51:07;;;;;;;21.13;12.47;;;;;;;;;;5094087;28;20174;-87
2021/01/31 04:53:51;;;;;;;23.47;12.83;;;;;;;;;;5093953;28;20171;-87
2021/01/31 04:56:19;;;;;;;26.20;14.27;;;;;;;;;;5093855;28;20223;-88
2021/01/31 04:58:49;;;;;;;27.50;14.40;;;;;;;;;;5094215;28;20170;-87
2021/01/31 05:01:22;;;;;;;32.73;16.07;;;;;;;;;;5094530;28;20213;-87
2021/01/31 05:03:55;;;;;;;30.87;16.87;;;;;;;;;;5097084;28;20205;-87
2021/01/31 05:06:22;;;;;;;31.47;16.83;;;;;;;;;;5096356;28;20261;-87
2021/01/31 05:08:48;;;;;;;27.10;14.87;;;;;;;;;;5097959;28;20170;-88
2021/01/31 05:11:20;;;;;;;24.10;13.30;;;;;;;;;;5098408;28;20206;-88
2021/01/31 05:14:04;;;;;;;19.70;12.40;;;;;;;;;;5097935;28;20223;-88
2021/01/31 05:16:29;;;;;;;23.53;12.90;;;;;;;;;;5097734;28;20155;-88
2021/01/31 05:18:57;;;;;;;19.83;12.93;;;;;;;;;;5097758;28;20170;-88
2021/01/31 05:21:24;;;;;;;25.43;13.33;;;;;;;;;;5097331;28;20659;-88
2021/01/31 05:23:56;;;;;;;22.37;14.00;;;;;;;;;;5097307;28;20174;-88
2021/01/31 05:26:21;;;;;;;23.90;14.10;;;;;;;;;;5097520;28;20170;-88
2021/01/31 05:28:52;;;;;;;29.13;15.87;;;;;;;;;;5096342;28;20529;-88
2021/01/31 05:31:18;;;;;;;26.93;16.10;;;;;;;;;;5097514;28;20169;-88
2021/01/31 05:33:48;;;;;;;30.27;15.50;;;;;;;;;;5096068;28;20203;-88
2021/01/31 05:36:15;;;;;;;29.30;14.60;;;;;;;;;;5096041;28;20271;-88
2021/01/31 05:38:42;;;;;;;27.47;15.13;;;;;;;;;;5097574;28;20401;-87
2021/01/31 05:41:26;;;;;;;27.93;15.33;;;;;;;;;;5097379;28;20560;-88
2021/01/31 05:43:55;;;;;;;31.67;17.50;;;;;;;;;;5097815;28;20201;-89
2021/01/31 05:46:20;;;;;;;37.47;21.37;;;;;;;;;;5097706;28;20513;-87
2021/01/31 05:48:45;;;;;;;44.53;25.03;;;;;;;;;;5097127;28;20169;-87
2021/01/31 05:51:15;;;;;;;47.43;26.03;;;;;;;;;;5096711;28;20182;-89
2021/01/31 05:53:40;;;;;;;45.67;23.70;;;;;;;;;;5097549;28;20240;-88
2021/01/31 05:56:11;;;;;;;41.30;23.23;;;;;;;;;;5097014;28;20174;-88
2021/01/31 05:58:37;;;;;;;39.07;21.03;;;;;;;;;;5095682;28;20194;-89
2021/01/31 06:01:04;;;;;;;39.40;20.73;;;;;;;;;;5096848;28;20259;-88
2021/01/31 06:03:29;;;;;;;37.37;21.80;;;;;;;;;;5095584;28;20171;-88
2021/01/31 06:06:06;;;;;;;37.87;20.10;;;;;;;;;;5096480;28;20324;-88
2021/01/31 06:08:33;;;;;;;32.40;19.17;;;;;;;;;;5097367;28;20239;-88
2021/01/31 06:11:06;;;;;;;42.43;22.13;;;;;;;;;;5095352;28;20179;-87
2021/01/31 06:13:33;;;;;;;45.90;23.63;;;;;;;;;;5095590;28;20173;-87
2021/01/31 06:16:00;;;;;;;41.77;23.10;;;;;;;;;;5096942;28;20249;-87
2021/01/31 06:18:28;;;;;;;46.57;25.03;;;;;;;;;;5096771;28;20274;-87
2021/01/31 06:21:07;;;;;;;47.93;24.17;;;;;;;;;;5096667;28;20277;-87
2021/01/31 06:23:34;;;;;;;41.20;21.20;;;;;;;;;;5096803;28;20163;-87
2021/01/31 06:25:59;;;;;;;36.57;18.60;;;;;;;;;;5095131;28;20194;-87
2021/01/31 06:28:27;;;;;;;31.57;16.10;;;;;;;;;;5096087;28;20509;-87
2021/01/31 06:30:53;;;;;;;35.63;18.63;;;;;;;;;;5096369;28;20173;-87
2021/01/31 06:33:18;;;;;;;58.67;27.43;;;;;;;;;;5096583;28;20177;-87
2021/01/31 06:35:44;;;;;;;57.73;27.77;;;;;;;;;;5096190;28;20296;-87
2021/01/31 06:38:39;;;;;;;66.30;31.33;;;;;;;;;;5096446;28;20194;-88
2021/01/31 06:41:04;;;;;;;110.53;45.13;;;;;;;;;;5077087;28;20230;-87
2021/01/31 06:43:35;;;;;;;99.83;43.17;;;;;;;;;;5095713;28;20169;-88
2021/01/31 06:46:07;;;;;;;77.50;34.63;;;;;;;;;;5095707;28;20170;-88
2021/01/31 06:48:35;;;;;;;70.80;31.80;;;;;;;;;;5096058;28;20590;-88
2021/01/31 06:51:20;;;;;;;59.07;29.43;;;;;;;;;;5095909;28;20170;-88
2021/01/31 06:54:03;;;;;;;48.13;26.07;;;;;;;;;;5096192;28;20257;-88
2021/01/31 06:56:49;;;;;;;51.60;24.57;;;;;;;;;;5095505;28;20170;-88
2021/01/31 06:59:14;;;;;;;55.37;25.73;;;;;;;;;;5093657;28;20277;-88
2021/01/31 07:01:58;;;;;;;63.07;32.33;;;;;;;;;;5095766;28;20732;-89
2021/01/31 07:04:42;;;;;;;96.67;45.37;;;;;;;;;;5095978;28;20211;-88
2021/01/31 07:07:25;;;;;;;110.53;48.93;;;;;;;;;;5095348;28;20167;-88
2021/01/31 07:10:10;;;;;;;91.07;44.73;;;;;;;;;;5095298;28;20251;-88
2021/01/31 07:12:41;;;;;;;64.17;34.77;;;;;;;;;;5096886;28;20173;-88
2021/01/31 07:15:15;;;;;;;52.37;28.50;;;;;;;;;;5096674;28;20197;-89
2021/01/31 07:17:50;;;;;;;64.13;32.80;;;;;;;;;;5095669;28;20171;-89
2021/01/31 07:20:24;;;;;;;53.23;29.27;;;;;;;;;;5095564;28;20616;-88
2021/01/31 07:22:55;;;;;;;54.40;29.20;;;;;;;;;;5093995;28;20226;-87
2021/01/31 07:25:29;;;;;;;48.83;28.80;;;;;;;;;;5094455;28;20170;-88
2021/01/31 07:28:01;;;;;;;47.07;29.93;;;;;;;;;;5095494;28;20180;-88
2021/01/31 07:30:36;;;;;;;62.13;34.93;;;;;;;;;;5095261;28;20153;-88
2021/01/31 07:33:01;;;;;;;53.90;31.63;;;;;;;;;;5094838;28;20225;-89
2021/01/31 07:35:34;;;;;;;52.77;30.77;;;;;;;;;;5095102;28;20613;-88
2021/01/31 07:38:11;;;;;;;51.77;28.87;;;;;;;;;;5095270;28;20253;-88
2021/01/31 07:40:36;;;;;;;55.13;31.83;;;;;;;;;;5094767;28;20232;-89
2021/01/31 07:43:02;;;;;;;54.57;32.20;;;;;;;;;;5093724;28;20171;-89
2021/01/31 07:45:28;;;;;;;60.17;36.13;;;;;;;;;;5094733;28;20574;-89
2021/01/31 07:48:11;;;;;;;70.73;43.17;;;;;;;;;;5095202;28;20205;-88
2021/01/31 07:50:40;;;;;;;55.43;32.60;;;;;;;;;;5095333;28;20201;-88
2021/01/31 07:53:06;;;;;;;44.07;26.23;;;;;;;;;;5094867;28;20194;-89
2021/01/31 07:55:33;;;;;;;31.70;21.13;;;;;;;;;;5094946;28;20171;-89
2021/01/31 07:58:02;;;;;;;43.30;26.43;;;;;;;;;;5094649;28;20167;-89
2021/01/31 08:00:41;;;;;;;37.23;22.23;;;;;;;;;;5094816;28;20170;-89
2021/01/31 08:03:18;;;;;;;46.80;28.63;;;;;;;;;;5095312;28;20597;-89
2021/01/31 08:05:47;;;;;;;37.67;21.83;;;;;;;;;;5093214;28;20204;-88
2021/01/31 08:08:32;;;;;;;37.80;22.53;;;;;;;;;;5094152;28;20170;-89
2021/01/31 08:10:58;;;;;;;43.33;24.87;;;;;;;;;;5092347;28;20178;-89
2021/01/31 08:13:42;;;;;;;56.07;31.27;;;;;;;;;;5085279;28;20183;-89
2021/01/31 08:16:26;;;;;;;59.80;35.80;;;;;;;;;;5074399;28;20171;-88
2021/01/31 08:19:02;;;;;;;109.53;54.90;;;;;;;;;;5074646;28;20227;-89
2021/01/31 08:21:48;;;;;;;122.17;57.30;;;;;;;;;;5074324;28;20281;-88
2021/01/31 08:24:14;;;;;;;94.70;45.70;;;;;;;;;;5073977;28;20175;-88
2021/01/31 08:26:44;;;;;;;93.53;49.57;;;;;;;;;;5072671;28;20499;-90
2021/01/31 08:29:20;;;;;;;93.87;49.70;;;;;;;;;;5074800;28;20175;-90
2021/01/31 08:32:05;;;;;;;60.87;34.37;;;;;;;;;;5073890;28;20182;-90
2021/01/31 08:34:31;;;;;;;79.83;40.60;;;;;;;;;;5073716;28;20194;-90
2021/01/31 08:37:15;;;;;;;64.67;33.77;;;;;;;;;;5073932;28;20617;-90
2021/01/31 08:39:41;;;;;;;57.87;31.33;;;;;;;;;;5073594;28;20163;-90
2021/01/31 08:42:10;;;;;;;114.57;54.40;;;;;;;;;;5084026;28;20237;-89
2021/01/31 08:44:36;;;;;;;155.67;73.10;;;;;;;;;;5088388;28;20830;-88
2021/01/31 08:47:02;;;;;;;115.67;55.03;;;;;;;;;;5092065;28;20182;-89
2021/01/31 08:49:28;;;;;;;151.07;60.97;;;;;;;;;;5093038;28;20528;-89
2021/01/31 08:51:58;;;;;;;76.23;35.40;;;;;;;;;;5093850;28;20258;-89
2021/01/31 08:54:27;;;;;;;107.53;46.23;;;;;;;;;;5092529;28;20175;-89
2021/01/31 08:57:10;;;;;;;43.17;24.77;;;;;;;;;;5092492;28;20190;-90
2021/01/31 08:59:50;;;;;;;34.63;21.23;;;;;;;;;;5091488;28;20198;-90
2021/01/31 09:02:19;;;;;;;62.00;35.03;;;;;;;;;;5093613;28;20204;-92
2021/01/31 09:04:46;;;;;;;44.83;26.27;;;;;;;;;;5093819;28;20181;-87
2021/01/31 09:07:13;;;;;;;54.77;31.50;;;;;;;;;;5093750;28;20656;-89
2021/01/31 09:09:52;;;;;;;85.80;44.40;;;;;;;;;;5093342;28;20228;-89
2021/01/31 09:12:20;;;;;;;62.93;35.90;;;;;;;;;;5092470;28;20224;-90
2021/01/31 09:14:45;;;;;;;32.70;20.60;;;;;;;;;;5093299;28;20564;-90
2021/01/31 09:17:24;;;;;;;29.97;19.70;;;;;;;;;;5092110;28;20182;-91
2021/01/31 09:20:03;;;;;;;67.67;41.43;;;;;;;;;;5092870;28;20194;-90
2021/01/31 09:22:29;;;;;;;53.20;31.87;;;;;;;;;;5091340;28;20544;-90
2021/01/31 09:25:00;;;;;;;46.63;28.73;;;;;;;;;;5093359;28;20220;-90
2021/01/31 09:27:26;;;;;;;31.10;21.30;;;;;;;;;;5092567;28;20199;-90
2021/01/31 09:29:56;;;;;;;35.93;23.57;;;;;;;;;;5092387;28;20208;-90
2021/01/31 09:32:24;;;;;;;40.90;25.00;;;;;;;;;;5091623;28;20594;-90
2021/01/31 09:34:56;;;;;;;47.47;30.50;;;;;;;;;;5094117;28;20167;-90
2021/01/31 09:37:29;;;;;;;51.53;31.90;;;;;;;;;;5091991;28;20175;-90
2021/01/31 09:39:57;;;;;;;41.57;26.53;;;;;;;;;;5093447;28;20190;-89
2021/01/31 09:42:23;;;;;;;31.13;19.93;;;;;;;;;;5085708;28;20206;-88
2021/01/31 09:44:54;;;;;;;28.40;18.53;;;;;;;;;;5093085;28;20167;-89
2021/01/31 09:47:21;;;;;;;36.70;22.47;;;;;;;;;;5092124;28;20181;-89
2021/01/31 09:49:55;;;;;;;39.40;24.33;;;;;;;;;;5094930;28;20170;-89
2021/01/31 09:52:20;;;;;;;34.67;22.27;;;;;;;;;;5096796;28;20183;-89
2021/01/31 09:54:46;;;;;;;20.40;13.40;;;;;;;;;;5096906;28;20167;-88
2021/01/31 09:57:22;;;;;;;25.70;14.00;;;;;;;;;;5096630;28;20640;-89
2021/01/31 09:59:51;;;;;;;20.83;13.57;;;;;;;;;;5096513;28;20166;-90
2021/01/31 10:02:21;;;;;;;22.13;12.13;;;;;;;;;;5096719;28;20198;-89
2021/01/31 10:04:57;;;;;;;21.77;13.63;;;;;;;;;;5096480;28;20758;-89
2021/01/31 10:07:26;;;;;;;26.70;15.60;;;;;;;;;;5096537;28;20165;-88
2021/01/31 10:09:51;;;;;;;19.87;11.83;;;;;;;;;;5096330;28;20174;-89
2021/01/31 10:12:30;;;;;;;16.00;10.40;;;;;;;;;;5097482;28;20182;-87
2021/01/31 10:15:07;;;;;;;18.67;10.70;;;;;;;;;;5094955;28;20226;-87
2021/01/31 10:17:39;;;;;;;14.07;9.00;;;;;;;;;;5094980;28;20188;-86
2021/01/31 10:20:23;;;;;;;18.60;11.10;;;;;;;;;;5095296;28;20170;-88
2021/01/31 10:22:48;;;;;;;14.37;9.27;;;;;;;;;;5095158;28;20571;-89
2021/01/31 10:25:13;;;;;;;14.80;9.20;;;;;;;;;;5096292;28;20166;-89
2021/01/31 10:27:47;;;;;;;20.00;9.87;;;;;;;;;;5077389;28;20570;-87
2021/01/31 10:30:17;;;;;;;12.80;8.20;;;;;;;;;;5094855;28;20170;-89
2021/01/31 10:32:43;;;;;;;10.87;6.40;;;;;;;;;;5094365;28;20176;-89
2021/01/31 10:35:26;;;;;;;12.97;7.57;;;;;;;;;;5095055;28;20174;-89
2021/01/31 10:37:52;;;;;;;18.00;9.87;;;;;;;;;;5095033;28;20171;-88
2021/01/31 10:40:17;;;;;;;20.63;10.97;;;;;;;;;;5095990;28;20275;-88
2021/01/31 10:42:46;;;;;;;11.13;7.37;;;;;;;;;;5093121;28;20210;-88
2021/01/31 10:45:13;;;;;;;13.80;8.20;;;;;;;;;;5088099;28;20174;-88
2021/01/31 10:47:39;;;;;;;12.43;8.00;;;;;;;;;;5094222;28;20210;-89
2021/01/31 10:50:05;;;;;;;16.70;9.93;;;;;;;;;;5095550;28;20174;-89
2021/01/31 10:52:32;;;;;;;23.17;13.70;;;;;;;;;;5095610;28;20261;-89
2021/01/31 10:54:57;;;;;;;11.30;7.00;;;;;;;;;;5095665;28;20167;-88
2021/01/31 10:57:23;;;;;;;12.90;7.40;;;;;;;;;;5095806;28;20258;-88
2021/01/31 10:59:48;;;;;;;14.80;10.10;;;;;;;;;;5094712;28;20174;-87
2021/01/31 11:02:13;;;;;;;14.10;8.97;;;;;;;;;;5095222;28;20194;-87
2021/01/31 11:04:39;;;;;;;17.30;10.20;;;;;;;;;;5092984;28;20205;-88
2021/01/31 11:07:04;;;;;;;17.03;8.80;;;;;;;;;;5094920;28;20530;-87
2021/01/31 11:09:30;;;;;;;18.03;10.57;;;;;;;;;;5095303;28;20632;-88
2021/01/31 11:11:55;;;;;;;10.80;7.33;;;;;;;;;;5092030;28;20219;-88
2021/01/31 11:14:20;;;;;;;14.17;10.40;;;;;;;;;;5094712;28;20251;-87
2021/01/31 11:16:46;;;;;;;12.10;7.67;;;;;;;;;;5094870;28;20174;-88
2021/01/31 11:19:11;;;;;;;11.40;8.00;;;;;;;;;;5095489;28;20223;-88
2021/01/31 11:21:37;;;;;;;23.33;12.63;;;;;;;;;;5094860;28;20644;-87
2021/01/31 11:24:02;;;;;;;11.90;6.97;;;;;;;;;;5095334;28;20253;-87
2021/01/31 11:26:29;;;;;;;9.77;6.87;;;;;;;;;;5091707;28;20629;-86
2021/01/31 11:28:55;;;;;;;9.63;6.70;;;;;;;;;;5095142;28;20182;-86
2021/01/31 11:31:23;;;;;;;18.40;10.43;;;;;;;;;;5095086;28;20261;-86
2021/01/31 11:33:50;;;;;;;62.63;37.00;;;;;;;;;;5087598;28;20227;-87
2021/01/31 11:36:15;;;;;;;26.37;17.83;;;;;;;;;;5094176;28;20174;-87
2021/01/31 11:38:41;;;;;;;25.63;15.87;;;;;;;;;;5093659;28;20269;-86
2021/01/31 11:41:06;;;;;;;17.53;12.43;;;;;;;;;;5085436;28;20227;-87
2021/01/31 11:43:32;;;;;;;21.13;14.03;;;;;;;;;;5073650;28;20190;-87
2021/01/31 11:45:57;;;;;;;37.70;25.67;;;;;;;;;;5072912;28;20175;-86
2021/01/31 11:48:22;;;;;;;56.73;40.83;;;;;;;;;;5093944;28;20171;-87
2021/01/31 11:50:48;;;;;;;22.63;16.93;;;;;;;;;;5094107;28;20621;-87
2021/01/31 11:53:14;;;;;;;10.23;7.27;;;;;;;;;;5093120;28;20171;-87
2021/01/31 11:55:39;;;;;;;15.43;11.03;;;;;;;;;;5094237;28;20177;-87
2021/01/31 11:58:05;;;;;;;19.47;12.77;;;;;;;;;;5094324;28;20178;-87
2021/01/31 12:00:30;;;;;;;31.87;23.20;;;;;;;;;;5093971;28;20266;-87
2021/01/31 12:02:55;;;;;;;29.17;22.33;;;;;;;;;;5091771;28;20183;-87
2021/01/31 12:05:22;;;;;;;19.97;13.73;;;;;;;;;;5091814;28;20252;-88
2021/01/31 12:07:48;;;;;;;30.33;21.93;;;;;;;;;;5093708;28;20181;-88
2021/01/31 12:10:14;;;;;;;55.30;42.30;;;;;;;;;;5093554;28;20170;-88
2021/01/31 12:12:39;;;;;;;20.47;13.87;;;;;;;;;;5090534;28;20189;-86
2021/01/31 12:15:06;;;;;;;19.67;12.20;;;;;;;;;;5092187;28;20748;-87
2021/01/31 12:17:32;;;;;;;22.87;17.93;;;;;;;;;;5092612;28;20206;-86
2021/01/31 12:19:57;;;;;;;17.10;10.90;;;;;;;;;;5092814;28;20628;-88
2021/01/31 12:22:23;;;;;;;24.97;18.10;;;;;;;;;;5092667;28;20202;-87
2021/01/31 12:24:50;;;;;;;13.90;12.47;;;;;;;;;;5091685;28;20231;-86
2021/01/31 12:27:16;;;;;;;13.77;10.47;;;;;;;;;;5092336;28;20182;-86
2021/01/31 12:29:42;;;;;;;11.47;8.53;;;;;;;;;;5092326;28;20197;-86
2021/01/31 12:32:09;;;;;;;17.70;13.47;;;;;;;;;;5090223;28;20641;-86
2021/01/31 12:34:34;;;;;;;16.73;12.33;;;;;;;;;;5093837;28;20174;-87
2021/01/31 12:36:59;;;;;;;13.17;9.70;;;;;;;;;;5094044;28;20508;-86
2021/01/31 12:39:25;;;;;;;14.77;9.67;;;;;;;;;;5092665;28;20174;-86
2021/01/31 12:41:50;;;;;;;12.60;9.83;;;;;;;;;;5091327;28;20301;-86
2021/01/31 12:44:15;;;;;;;20.43;14.47;;;;;;;;;;5089229;28;20189;-86
2021/01/31 12:46:41;;;;;;;17.27;11.17;;;;;;;;;;5093458;28;20617;-87
2021/01/31 12:49:06;;;;;;;11.93;8.60;;;;;;;;;;5089852;28;20611;-87
2021/01/31 12:51:31;;;;;;;54.70;23.27;;;;;;;;;;5087488;28;20201;-87
2021/01/31 12:53:57;;;;;;;66.90;24.77;;;;;;;;;;5092851;28;20647;-87
2021/01/31 12:56:22;;;;;;;51.83;33.40;;;;;;;;;;5093546;28;20520;-86
2021/01/31 12:58:48;;;;;;;42.63;37.97;;;;;;;;;;5093266;28;20170;-87
2021/01/31 13:01:13;;;;;;;13.43;9.77;;;;;;;;;;5092227;28;20244;-87
2021/01/31 13:03:38;;;;;;;18.00;15.53;;;;;;;;;;5092495;28;20174;-87
2021/01/31 13:06:04;;;;;;;15.43;12.17;;;;;;;;;;5092917;28;20166;-87
2021/01/31 13:08:29;;;;;;;17.87;12.10;;;;;;;;;;5092994;28;20171;-87
2021/01/31 13:10:54;;;;;;;12.70;8.97;;;;;;;;;;5097365;28;20315;-86
2021/01/31 13:13:20;;;;;;;11.77;8.47;;;;;;;;;;5105196;28;20185;-86
2021/01/31 13:15:46;;;;;;;12.37;9.00;;;;;;;;;;5098049;28;20198;-87
2021/01/31 13:18:12;;;;;;;13.37;9.47;;;;;;;;;;5092498;28;20183;-86
2021/01/31 13:20:37;;;;;;;14.70;9.37;;;;;;;;;;5112040;28;20166;-88
2021/01/31 13:23:05;;;;;;;12.23;8.87;;;;;;;;;;5097025;28;20170;-87
2021/01/31 13:25:35;;;;;;;18.43;12.80;;;;;;;;;;5096390;28;20171;-87
2021/01/31 13:28:02;;;;;;;22.20;13.83;;;;;;;;;;5096219;28;20621;-87
2021/01/31 13:30:28;;;;;;;15.93;10.30;;;;;;;;;;5096263;28;20617;-87
2021/01/31 13:32:53;;;;;;;20.43;13.10;;;;;;;;;;5095119;28;20181;-87
2021/01/31 13:35:20;;;;;;;16.57;11.53;;;;;;;;;;5096189;28;20170;-86
2021/01/31 13:37:45;;;;;;;17.70;9.40;;;;;;;;;;5094739;28;20254;-86
2021/01/31 13:40:11;;;;;;;21.13;11.53;;;;;;;;;;5094982;28;20724;-87
2021/01/31 13:42:37;;;;;;;17.37;12.80;;;;;;;;;;5096289;28;20240;-87
2021/01/31 13:45:04;;;;;;;16.60;9.53;;;;;;;;;;5096283;28;20169;-86
2021/01/31 13:47:31;;;;;;;29.50;20.93;;;;;;;;;;5096248;28;20174;-87
2021/01/31 13:49:57;;;;;;;48.57;27.50;;;;;;;;;;5095789;28;20181;-86
2021/01/31 13:52:26;;;;;;;47.73;26.67;;;;;;;;;;5096048;28;20181;-87
2021/01/31 13:54:51;;;;;;;39.13;19.17;;;;;;;;;;5095831;28;20216;-86
2021/01/31 13:57:17;;;;;;;53.00;29.77;;;;;;;;;;5096052;28;20171;-87
2021/01/31 13:59:43;;;;;;;18.23;12.83;;;;;;;;;;5096216;28;20633;-87
2021/01/31 14:02:08;;;;;;;28.67;17.57;;;;;;;;;;5095982;28;20199;-87
2021/01/31 14:04:33;;;;;;;28.27;14.60;;;;;;;;;;5095977;28;20170;-86
2021/01/31 14:06:59;;;;;;;42.10;20.70;;;;;;;;;;5094524;28;20253;-87
2021/01/31 14:09:24;;;;;;;22.93;14.70;;;;;;;;;;5094908;28;20676;-88
2021/01/31 14:11:49;;;;;;;20.47;13.10;;;;;;;;;;5095900;28;20171;-88
2021/01/31 14:14:15;;;;;;;18.00;12.10;;;;;;;;;;5081191;28;20240;-86
2021/01/31 14:16:40;;;;;;;22.83;13.60;;;;;;;;;;5075447;28;20175;-88
2021/01/31 14:19:05;;;;;;;23.80;14.37;;;;;;;;;;5075649;28;20633;-87
2021/01/31 14:21:32;;;;;;;32.90;21.37;;;;;;;;;;5075099;28;20209;-87
2021/01/31 14:23:58;;;;;;;53.27;38.23;;;;;;;;;;5075238;28;20179;-87
2021/01/31 14:26:23;;;;;;;22.27;14.90;;;;;;;;;;5075469;28;20566;-87
2021/01/31 14:28:48;;;;;;;25.90;15.80;;;;;;;;;;5074002;28;20191;-87